sensor_id;sensor_type;location;lat;lon;timestamp;temperature;humidity
46492;DHT22;32206;51.446;6.792;2023-04-29T00:01:55;12.00;99.90
46492;DHT22;32206;51.446;6.792;2023-04-29T00:04:24;12.00;99.90
46492;DHT22;32206;51.446;6.792;2023-04-29T00:07:14;12.00;99.90
46492;DHT22;32206;51.446;6.792;2023-04-29T00:09:40;12.00;99.90
46492;DHT22;32206;51.446;6.792;2023-04-29T00:12:06;12.00;99.90
46492;DHT22;32206;51.446;6.792;2023-04-29T00:28:00;11.60;99.90
46492;DHT22;32206;51.446;6.792;2023-04-29T00:30:27;11.60;99.90
46492;DHT22;32206;51.446;6.792;2023-04-29T00:32:53;11.60;99.90
46492;DHT22;32206;51.446;6.792;2023-04-29T00:35:20;11.50;99.90
46492;DHT22;32206;51.446;6.792;2023-04-29T00:37:46;11.50;99.90
46492;DHT22;32206;51.446;6.792;2023-04-29T00:40:11;11.20;99.90
46492;DHT22;32206;51.446;6.792;2023-04-29T00:42:39;11.50;99.90
46492;DHT22;32206;51.446;6.792;2023-04-29T00:45:06;11.50;99.90
46492;DHT22;32206;51.446;6.792;2023-04-29T00:47:32;11.50;99.90
46492;DHT22;32206;51.446;6.792;2023-04-29T00:49:57;11.50;99.90
46492;DHT22;32206;51.446;6.792;2023-04-29T00:56:19;11.40;99.90
46492;DHT22;32206;51.446;6.792;2023-04-29T00:58:45;11.40;99.90
46492;DHT22;32206;51.446;6.792;2023-04-29T01:01:15;11.40;99.90
46492;DHT22;32206;51.446;6.792;2023-04-29T01:03:41;11.40;99.90
46492;DHT22;32206;51.446;6.792;2023-04-29T01:06:23;11.40;99.90
46492;DHT22;32206;51.446;6.792;2023-04-29T01:12:23;11.30;99.90
46492;DHT22;32206;51.446;6.792;2023-04-29T01:15:22;11.30;99.90
46492;DHT22;32206;51.446;6.792;2023-04-29T01:17:55;11.20;99.90
46492;DHT22;32206;51.446;6.792;2023-04-29T01:20:25;11.20;99.90
46492;DHT22;32206;51.446;6.792;2023-04-29T01:22:51;11.20;99.90
46492;DHT22;32206;51.446;6.792;2023-04-29T01:25:16;11.40;99.90
46492;DHT22;32206;51.446;6.792;2023-04-29T01:30:53;11.20;99.90
46492;DHT22;32206;51.446;6.792;2023-04-29T01:37:04;11.10;99.90
46492;DHT22;32206;51.446;6.792;2023-04-29T01:39:40;11.00;99.90
46492;DHT22;32206;51.446;6.792;2023-04-29T01:42:17;11.00;99.90
46492;DHT22;32206;51.446;6.792;2023-04-29T01:44:46;11.10;99.90
46492;DHT22;32206;51.446;6.792;2023-04-29T01:47:13;11.00;99.90
46492;DHT22;32206;51.446;6.792;2023-04-29T01:49:39;11.00;99.90
46492;DHT22;32206;51.446;6.792;2023-04-29T01:52:11;11.00;99.90
46492;DHT22;32206;51.446;6.792;2023-04-29T01:54:37;11.00;99.90
46492;DHT22;32206;51.446;6.792;2023-04-29T01:57:03;11.00;99.90
46492;DHT22;32206;51.446;6.792;2023-04-29T01:59:29;10.90;99.90
46492;DHT22;32206;51.446;6.792;2023-04-29T02:01:55;10.90;99.90
46492;DHT22;32206;51.446;6.792;2023-04-29T02:04:26;10.80;99.90
46492;DHT22;32206;51.446;6.792;2023-04-29T02:06:53;10.80;99.90
46492;DHT22;32206;51.446;6.792;2023-04-29T02:12:40;10.70;99.90
46492;DHT22;32206;51.446;6.792;2023-04-29T02:15:07;10.40;99.90
46492;DHT22;32206;51.446;6.792;2023-04-29T02:20:59;10.80;99.90
46492;DHT22;32206;51.446;6.792;2023-04-29T02:23:26;10.80;99.90
46492;DHT22;32206;51.446;6.792;2023-04-29T02:25:51;10.80;99.90
46492;DHT22;32206;51.446;6.792;2023-04-29T02:28:17;10.70;99.90
46492;DHT22;32206;51.446;6.792;2023-04-29T02:30:43;10.70;99.90
46492;DHT22;32206;51.446;6.792;2023-04-29T02:33:08;10.70;99.90
46492;DHT22;32206;51.446;6.792;2023-04-29T02:35:34;10.70;99.90
46492;DHT22;32206;51.446;6.792;2023-04-29T02:41:22;10.70;99.90
46492;DHT22;32206;51.446;6.792;2023-04-29T02:43:50;10.70;99.90
46492;DHT22;32206;51.446;6.792;2023-04-29T02:46:15;10.80;99.90
46492;DHT22;32206;51.446;6.792;2023-04-29T02:48:41;10.60;99.90
46492;DHT22;32206;51.446;6.792;2023-04-29T02:51:07;10.70;99.90
46492;DHT22;32206;51.446;6.792;2023-04-29T02:56:54;10.70;99.90
46492;DHT22;32206;51.446;6.792;2023-04-29T02:59:20;10.60;99.90
46492;DHT22;32206;51.446;6.792;2023-04-29T03:01:45;10.60;99.90
46492;DHT22;32206;51.446;6.792;2023-04-29T03:04:11;10.70;99.90
46492;DHT22;32206;51.446;6.792;2023-04-29T03:06:37;10.70;99.90
46492;DHT22;32206;51.446;6.792;2023-04-29T03:12:44;10.70;99.90
46492;DHT22;32206;51.446;6.792;2023-04-29T03:15:10;10.60;99.90
46492;DHT22;32206;51.446;6.792;2023-04-29T03:17:36;10.60;99.90
46492;DHT22;32206;51.446;6.792;2023-04-29T03:20:02;10.50;99.90
46492;DHT22;32206;51.446;6.792;2023-04-29T03:22:28;10.50;99.90
46492;DHT22;32206;51.446;6.792;2023-04-29T03:28:16;10.50;99.90
46492;DHT22;32206;51.446;6.792;2023-04-29T03:30:42;10.50;99.90
46492;DHT22;32206;51.446;6.792;2023-04-29T03:33:07;10.50;99.90
46492;DHT22;32206;51.446;6.792;2023-04-29T03:35:33;10.50;99.90
46492;DHT22;32206;51.446;6.792;2023-04-29T03:37:59;10.50;99.90
46492;DHT22;32206;51.446;6.792;2023-04-29T03:40:24;10.40;99.90
46492;DHT22;32206;51.446;6.792;2023-04-29T03:42:50;10.40;99.90
46492;DHT22;32206;51.446;6.792;2023-04-29T03:45:16;10.60;99.90
46492;DHT22;32206;51.446;6.792;2023-04-29T03:47:42;10.40;99.90
46492;DHT22;32206;51.446;6.792;2023-04-29T03:50:08;10.40;99.90
46492;DHT22;32206;51.446;6.792;2023-04-29T03:52:33;10.40;99.90
46492;DHT22;32206;51.446;6.792;2023-04-29T03:55:02;10.30;99.90
46492;DHT22;32206;51.446;6.792;2023-04-29T03:57:28;10.40;99.90
46492;DHT22;32206;51.446;6.792;2023-04-29T03:59:54;10.40;99.90
46492;DHT22;32206;51.446;6.792;2023-04-29T04:02:19;10.40;99.90
46492;DHT22;32206;51.446;6.792;2023-04-29T04:08:10;10.30;99.90
46492;DHT22;32206;51.446;6.792;2023-04-29T04:13:58;10.30;99.90
46492;DHT22;32206;51.446;6.792;2023-04-29T04:16:24;10.30;99.90
46492;DHT22;32206;51.446;6.792;2023-04-29T04:19:05;10.30;99.90
46492;DHT22;32206;51.446;6.792;2023-04-29T04:21:30;10.30;99.90
46492;DHT22;32206;51.446;6.792;2023-04-29T04:30:40;10.40;99.90
46492;DHT22;32206;51.446;6.792;2023-04-29T04:36:29;10.40;99.90
46492;DHT22;32206;51.446;6.792;2023-04-29T04:38:55;10.40;99.90
46492;DHT22;32206;51.446;6.792;2023-04-29T04:41:21;10.40;99.90
46492;DHT22;32206;51.446;6.792;2023-04-29T04:43:46;10.40;99.90
46492;DHT22;32206;51.446;6.792;2023-04-29T04:46:13;10.50;99.90
46492;DHT22;32206;51.446;6.792;2023-04-29T04:52:00;10.40;99.90
46492;DHT22;32206;51.446;6.792;2023-04-29T04:54:26;10.40;99.90
46492;DHT22;32206;51.446;6.792;2023-04-29T04:56:52;10.40;99.90
46492;DHT22;32206;51.446;6.792;2023-04-29T04:59:17;10.40;99.90
46492;DHT22;32206;51.446;6.792;2023-04-29T05:01:43;10.50;99.90
46492;DHT22;32206;51.446;6.792;2023-04-29T05:04:09;10.60;99.90
46492;DHT22;32206;51.446;6.792;2023-04-29T05:06:34;10.50;99.90
46492;DHT22;32206;51.446;6.792;2023-04-29T05:09:00;10.50;99.90
46492;DHT22;32206;51.446;6.792;2023-04-29T05:11:26;10.50;99.90
46492;DHT22;32206;51.446;6.792;2023-04-29T05:13:51;10.50;99.90
46492;DHT22;32206;51.446;6.792;2023-04-29T05:16:17;10.50;99.90
46492;DHT22;32206;51.446;6.792;2023-04-29T05:18:43;10.60;99.90
46492;DHT22;32206;51.446;6.792;2023-04-29T05:21:10;10.50;99.90
46492;DHT22;32206;51.446;6.792;2023-04-29T05:23:36;10.80;99.90
46492;DHT22;32206;51.446;6.792;2023-04-29T05:29:24;10.60;99.90
46492;DHT22;32206;51.446;6.792;2023-04-29T05:31:51;10.60;99.90
46492;DHT22;32206;51.446;6.792;2023-04-29T05:37:39;10.70;99.90
46492;DHT22;32206;51.446;6.792;2023-04-29T05:40:20;10.70;99.90
46492;DHT22;32206;51.446;6.792;2023-04-29T05:42:47;10.80;99.90
46492;DHT22;32206;51.446;6.792;2023-04-29T05:45:13;10.70;99.90
46492;DHT22;32206;51.446;6.792;2023-04-29T05:47:39;10.70;99.90
46492;DHT22;32206;51.446;6.792;2023-04-29T05:50:05;10.70;99.90
46492;DHT22;32206;51.446;6.792;2023-04-29T05:52:31;10.70;99.90
46492;DHT22;32206;51.446;6.792;2023-04-29T06:01:41;10.80;99.90
46492;DHT22;32206;51.446;6.792;2023-04-29T06:04:07;10.80;99.90
46492;DHT22;32206;51.446;6.792;2023-04-29T06:06:32;10.70;99.90
46492;DHT22;32206;51.446;6.792;2023-04-29T06:08:59;10.70;99.90
46492;DHT22;32206;51.446;6.792;2023-04-29T06:11:25;10.70;99.90
46492;DHT22;32206;51.446;6.792;2023-04-29T06:13:51;11.10;99.90
46492;DHT22;32206;51.446;6.792;2023-04-29T06:16:17;10.80;99.90
46492;DHT22;32206;51.446;6.792;2023-04-29T06:18:44;10.80;99.90
46492;DHT22;32206;51.446;6.792;2023-04-29T06:21:09;10.80;99.90
46492;DHT22;32206;51.446;6.792;2023-04-29T06:23:35;10.90;99.90
46492;DHT22;32206;51.446;6.792;2023-04-29T06:29:51;10.80;99.90
46492;DHT22;32206;51.446;6.792;2023-04-29T06:35:39;10.80;99.90
46492;DHT22;32206;51.446;6.792;2023-04-29T06:38:05;10.80;99.90
46492;DHT22;32206;51.446;6.792;2023-04-29T06:40:33;10.90;99.90
46492;DHT22;32206;51.446;6.792;2023-04-29T06:42:59;10.90;99.90
46492;DHT22;32206;51.446;6.792;2023-04-29T06:45:25;10.90;99.90
46492;DHT22;32206;51.446;6.792;2023-04-29T06:47:50;10.90;99.90
46492;DHT22;32206;51.446;6.792;2023-04-29T06:50:16;11.00;99.90
46492;DHT22;32206;51.446;6.792;2023-04-29T06:52:42;10.90;99.90
46492;DHT22;32206;51.446;6.792;2023-04-29T06:55:08;10.90;99.90
46492;DHT22;32206;51.446;6.792;2023-04-29T07:00:55;10.90;99.90
46492;DHT22;32206;51.446;6.792;2023-04-29T07:03:21;11.00;99.90
46492;DHT22;32206;51.446;6.792;2023-04-29T07:05:47;11.00;99.90
46492;DHT22;32206;51.446;6.792;2023-04-29T07:08:13;11.00;99.90
46492;DHT22;32206;51.446;6.792;2023-04-29T07:10:39;11.30;99.90
46492;DHT22;32206;51.446;6.792;2023-04-29T07:13:04;11.10;99.90
46492;DHT22;32206;51.446;6.792;2023-04-29T07:15:33;11.10;99.90
46492;DHT22;32206;51.446;6.792;2023-04-29T07:17:59;11.10;99.90
46492;DHT22;32206;51.446;6.792;2023-04-29T07:20:46;11.20;99.90
46492;DHT22;32206;51.446;6.792;2023-04-29T07:23:12;11.20;99.90
46492;DHT22;32206;51.446;6.792;2023-04-29T07:25:39;11.30;99.90
46492;DHT22;32206;51.446;6.792;2023-04-29T07:28:05;11.30;99.90
46492;DHT22;32206;51.446;6.792;2023-04-29T07:30:32;11.20;99.90
46492;DHT22;32206;51.446;6.792;2023-04-29T07:32:58;11.20;99.90
46492;DHT22;32206;51.446;6.792;2023-04-29T07:35:24;11.20;99.90
46492;DHT22;32206;51.446;6.792;2023-04-29T07:37:50;11.30;99.90
46492;DHT22;32206;51.446;6.792;2023-04-29T07:40:16;11.20;99.90
46492;DHT22;32206;51.446;6.792;2023-04-29T07:42:42;11.20;99.90
46492;DHT22;32206;51.446;6.792;2023-04-29T07:45:08;11.10;99.90
46492;DHT22;32206;51.446;6.792;2023-04-29T07:47:34;11.10;99.90
46492;DHT22;32206;51.446;6.792;2023-04-29T07:49:59;11.10;99.90
46492;DHT22;32206;51.446;6.792;2023-04-29T07:52:25;11.10;99.90
46492;DHT22;32206;51.446;6.792;2023-04-29T07:54:51;11.10;99.90
46492;DHT22;32206;51.446;6.792;2023-04-29T07:57:17;11.30;99.90
46492;DHT22;32206;51.446;6.792;2023-04-29T07:59:43;11.10;99.90
46492;DHT22;32206;51.446;6.792;2023-04-29T08:02:14;11.20;99.90
46492;DHT22;32206;51.446;6.792;2023-04-29T08:04:40;11.10;99.90
46492;DHT22;32206;51.446;6.792;2023-04-29T08:07:06;11.20;99.90
46492;DHT22;32206;51.446;6.792;2023-04-29T08:09:32;11.20;99.90
46492;DHT22;32206;51.446;6.792;2023-04-29T08:18:23;11.20;99.90
46492;DHT22;32206;51.446;6.792;2023-04-29T08:20:48;11.20;99.90
46492;DHT22;32206;51.446;6.792;2023-04-29T08:23:14;11.30;99.90
46492;DHT22;32206;51.446;6.792;2023-04-29T08:25:43;11.20;99.90
46492;DHT22;32206;51.446;6.792;2023-04-29T08:31:30;11.20;99.90
46492;DHT22;32206;51.446;6.792;2023-04-29T08:37:18;11.20;99.90
46492;DHT22;32206;51.446;6.792;2023-04-29T08:39:45;11.20;99.90
46492;DHT22;32206;51.446;6.792;2023-04-29T08:42:13;11.20;99.90
46492;DHT22;32206;51.446;6.792;2023-04-29T08:44:39;11.30;99.90
46492;DHT22;32206;51.446;6.792;2023-04-29T08:47:05;11.40;99.90
46492;DHT22;32206;51.446;6.792;2023-04-29T08:49:31;11.40;99.90
46492;DHT22;32206;51.446;6.792;2023-04-29T08:51:59;11.30;99.90
46492;DHT22;32206;51.446;6.792;2023-04-29T08:54:25;11.20;99.90
46492;DHT22;32206;51.446;6.792;2023-04-29T09:00:41;11.30;99.90
46492;DHT22;32206;51.446;6.792;2023-04-29T09:03:26;11.20;99.90
46492;DHT22;32206;51.446;6.792;2023-04-29T09:05:55;11.20;99.90
46492;DHT22;32206;51.446;6.792;2023-04-29T09:08:23;11.20;99.90
46492;DHT22;32206;51.446;6.792;2023-04-29T09:10:52;11.20;99.90
46492;DHT22;32206;51.446;6.792;2023-04-29T09:16:46;11.30;99.90
46492;DHT22;32206;51.446;6.792;2023-04-29T09:19:28;11.50;99.90
46492;DHT22;32206;51.446;6.792;2023-04-29T09:21:55;11.40;99.90
46492;DHT22;32206;51.446;6.792;2023-04-29T09:24:25;11.50;99.90
46492;DHT22;32206;51.446;6.792;2023-04-29T09:26:52;11.50;99.90
46492;DHT22;32206;51.446;6.792;2023-04-29T09:29:17;11.50;99.90
46492;DHT22;32206;51.446;6.792;2023-04-29T09:31:44;11.60;99.90
46492;DHT22;32206;51.446;6.792;2023-04-29T09:34:10;11.60;99.90
46492;DHT22;32206;51.446;6.792;2023-04-29T09:36:47;11.60;99.90
46492;DHT22;32206;51.446;6.792;2023-04-29T09:44:08;11.50;99.90
46492;DHT22;32206;51.446;6.792;2023-04-29T09:46:34;11.70;99.90
46492;DHT22;32206;51.446;6.792;2023-04-29T09:49:01;11.60;99.90
46492;DHT22;32206;51.446;6.792;2023-04-29T09:51:28;11.70;99.90
46492;DHT22;32206;51.446;6.792;2023-04-29T09:53:59;11.80;99.90
46492;DHT22;32206;51.446;6.792;2023-04-29T09:56:26;11.90;99.90
46492;DHT22;32206;51.446;6.792;2023-04-29T10:02:17;12.00;99.90
46492;DHT22;32206;51.446;6.792;2023-04-29T10:04:55;12.10;99.90
46492;DHT22;32206;51.446;6.792;2023-04-29T10:07:22;12.20;99.90
46492;DHT22;32206;51.446;6.792;2023-04-29T10:20:14;12.20;99.90
46492;DHT22;32206;51.446;6.792;2023-04-29T10:22:53;12.30;99.90
46492;DHT22;32206;51.446;6.792;2023-04-29T10:25:23;12.30;99.90
46492;DHT22;32206;51.446;6.792;2023-04-29T10:34:35;12.50;99.90
46492;DHT22;32206;51.446;6.792;2023-04-29T10:37:02;12.60;99.90
46492;DHT22;32206;51.446;6.792;2023-04-29T10:42:43;12.80;99.90
46492;DHT22;32206;51.446;6.792;2023-04-29T10:57:22;13.40;99.90
46492;DHT22;32206;51.446;6.792;2023-04-29T10:59:52;13.40;99.90
46492;DHT22;32206;51.446;6.792;2023-04-29T11:02:18;13.50;99.90
46492;DHT22;32206;51.446;6.792;2023-04-29T11:05:10;13.60;99.90
46492;DHT22;32206;51.446;6.792;2023-04-29T11:07:36;13.60;99.90
46492;DHT22;32206;51.446;6.792;2023-04-29T11:10:02;13.70;99.90
46492;DHT22;32206;51.446;6.792;2023-04-29T11:12:28;13.80;99.90
46492;DHT22;32206;51.446;6.792;2023-04-29T11:14:57;13.80;28.20
46492;DHT22;32206;51.446;6.792;2023-04-29T11:17:34;13.90;19.30
46492;DHT22;32206;51.446;6.792;2023-04-29T11:20:00;14.00;22.80
46492;DHT22;32206;51.446;6.792;2023-04-29T11:22:27;14.10;22.10
46492;DHT22;32206;51.446;6.792;2023-04-29T11:24:58;14.30;1.00
46492;DHT22;32206;51.446;6.792;2023-04-29T11:27:45;14.40;1.00
46492;DHT22;32206;51.446;6.792;2023-04-29T11:33:35;14.60;1.00
46492;DHT22;32206;51.446;6.792;2023-04-29T11:36:01;14.70;1.00
46492;DHT22;32206;51.446;6.792;2023-04-29T11:38:28;14.80;1.00
46492;DHT22;32206;51.446;6.792;2023-04-29T11:40:55;14.90;1.00
46492;DHT22;32206;51.446;6.792;2023-04-29T11:43:23;15.00;1.00
46492;DHT22;32206;51.446;6.792;2023-04-29T11:49:11;15.50;1.00
46492;DHT22;32206;51.446;6.792;2023-04-29T11:51:36;15.70;99.90
46492;DHT22;32206;51.446;6.792;2023-04-29T11:54:02;15.90;99.90
46492;DHT22;32206;51.446;6.792;2023-04-29T11:56:28;15.90;99.90
46492;DHT22;32206;51.446;6.792;2023-04-29T12:02:15;15.90;1.00
46492;DHT22;32206;51.446;6.792;2023-04-29T12:04:47;16.30;28.90
46492;DHT22;32206;51.446;6.792;2023-04-29T12:07:16;16.90;18.00
46492;DHT22;32206;51.446;6.792;2023-04-29T12:09:45;17.20;1.00
46492;DHT22;32206;51.446;6.792;2023-04-29T12:12:13;17.50;94.40
46492;DHT22;32206;51.446;6.792;2023-04-29T12:21:08;17.10;1.00
46492;DHT22;32206;51.446;6.792;2023-04-29T12:23:34;16.90;99.90
46492;DHT22;32206;51.446;6.792;2023-04-29T12:26:00;16.70;99.90
46492;DHT22;32206;51.446;6.792;2023-04-29T12:28:27;16.50;1.00
46492;DHT22;32206;51.446;6.792;2023-04-29T12:34:15;16.10;1.00
46492;DHT22;32206;51.446;6.792;2023-04-29T12:36:43;16.00;1.00
46492;DHT22;32206;51.446;6.792;2023-04-29T12:39:12;15.80;1.00
46492;DHT22;32206;51.446;6.792;2023-04-29T12:41:41;15.80;99.90
46492;DHT22;32206;51.446;6.792;2023-04-29T12:44:08;15.70;62.20
46492;DHT22;32206;51.446;6.792;2023-04-29T12:50:00;15.60;99.90
46492;DHT22;32206;51.446;6.792;2023-04-29T12:52:25;15.60;99.90
46492;DHT22;32206;51.446;6.792;2023-04-29T12:54:51;15.60;1.00
46492;DHT22;32206;51.446;6.792;2023-04-29T12:57:32;15.60;99.90
46492;DHT22;32206;51.446;6.792;2023-04-29T12:59:58;15.60;99.90
46492;DHT22;32206;51.446;6.792;2023-04-29T13:02:24;15.70;99.90
46492;DHT22;32206;51.446;6.792;2023-04-29T13:04:50;15.80;99.90
46492;DHT22;32206;51.446;6.792;2023-04-29T13:14:00;15.90;99.90
46492;DHT22;32206;51.446;6.792;2023-04-29T13:16:26;15.90;68.50
46492;DHT22;32206;51.446;6.792;2023-04-29T13:18:52;15.80;99.90
46492;DHT22;32206;51.446;6.792;2023-04-29T13:21:18;15.90;99.90
46492;DHT22;32206;51.446;6.792;2023-04-29T13:23:43;15.90;99.90
46492;DHT22;32206;51.446;6.792;2023-04-29T13:26:09;15.90;99.90
46492;DHT22;32206;51.446;6.792;2023-04-29T13:28:35;15.90;99.90
46492;DHT22;32206;51.446;6.792;2023-04-29T13:34:23;16.00;1.00
46492;DHT22;32206;51.446;6.792;2023-04-29T13:36:49;15.90;99.90
46492;DHT22;32206;51.446;6.792;2023-04-29T13:39:14;16.00;99.90
46492;DHT22;32206;51.446;6.792;2023-04-29T13:41:41;15.90;99.90
46492;DHT22;32206;51.446;6.792;2023-04-29T13:44:07;15.90;99.90
46492;DHT22;32206;51.446;6.792;2023-04-29T13:49:55;16.00;99.90
46492;DHT22;32206;51.446;6.792;2023-04-29T13:52:21;15.90;99.90
46492;DHT22;32206;51.446;6.792;2023-04-29T13:54:47;16.00;99.90
46492;DHT22;32206;51.446;6.792;2023-04-29T13:57:13;16.00;99.90
46492;DHT22;32206;51.446;6.792;2023-04-29T13:59:38;16.00;12.50
46492;DHT22;32206;51.446;6.792;2023-04-29T14:02:04;16.00;99.90
46492;DHT22;32206;51.446;6.792;2023-04-29T14:04:29;16.10;99.90
46492;DHT22;32206;51.446;6.792;2023-04-29T14:06:55;16.10;1.00
46492;DHT22;32206;51.446;6.792;2023-04-29T14:09:22;16.20;1.00
46492;DHT22;32206;51.446;6.792;2023-04-29T14:11:48;16.20;1.00
46492;DHT22;32206;51.446;6.792;2023-04-29T14:14:15;16.30;44.40
46492;DHT22;32206;51.446;6.792;2023-04-29T14:20:09;16.40;1.00
46492;DHT22;32206;51.446;6.792;2023-04-29T14:22:34;16.50;1.00
46492;DHT22;32206;51.446;6.792;2023-04-29T14:25:00;16.60;99.90
46492;DHT22;32206;51.446;6.792;2023-04-29T14:27:26;16.60;99.90
46492;DHT22;32206;51.446;6.792;2023-04-29T14:29:51;16.70;99.90
46492;DHT22;32206;51.446;6.792;2023-04-29T14:32:17;16.70;1.00
46492;DHT22;32206;51.446;6.792;2023-04-29T14:34:42;16.70;1.00
46492;DHT22;32206;51.446;6.792;2023-04-29T14:37:08;16.60;1.00
46492;DHT22;32206;51.446;6.792;2023-04-29T14:39:34;16.70;86.80
46492;DHT22;32206;51.446;6.792;2023-04-29T14:41:59;16.60;63.00
46492;DHT22;32206;51.446;6.792;2023-04-29T14:44:26;16.60;32.90
46492;DHT22;32206;51.446;6.792;2023-04-29T14:50:26;16.60;99.90
46492;DHT22;32206;51.446;6.792;2023-04-29T14:52:52;16.50;99.90
46492;DHT22;32206;51.446;6.792;2023-04-29T14:58:40;16.60;99.90
46492;DHT22;32206;51.446;6.792;2023-04-29T15:04:21;16.90;99.90
46492;DHT22;32206;51.446;6.792;2023-04-29T15:06:48;17.20;99.90
46492;DHT22;32206;51.446;6.792;2023-04-29T15:09:14;17.50;99.90
46492;DHT22;32206;51.446;6.792;2023-04-29T15:11:40;17.60;1.00
46492;DHT22;32206;51.446;6.792;2023-04-29T15:14:06;17.90;1.00
46492;DHT22;32206;51.446;6.792;2023-04-29T15:19:50;18.10;99.90
46492;DHT22;32206;51.446;6.792;2023-04-29T15:22:16;18.10;99.90
46492;DHT22;32206;51.446;6.792;2023-04-29T15:24:42;18.20;99.90
46492;DHT22;32206;51.446;6.792;2023-04-29T15:27:08;18.20;99.90
46492;DHT22;32206;51.446;6.792;2023-04-29T15:29:33;18.30;49.20
46492;DHT22;32206;51.446;6.792;2023-04-29T15:35:24;18.40;1.00
46492;DHT22;32206;51.446;6.792;2023-04-29T15:37:49;18.60;1.00
46492;DHT22;32206;51.446;6.792;2023-04-29T15:40:15;18.80;1.00
46492;DHT22;32206;51.446;6.792;2023-04-29T15:42:41;19.10;1.00
46492;DHT22;32206;51.446;6.792;2023-04-29T15:45:08;19.00;99.90
46492;DHT22;32206;51.446;6.792;2023-04-29T15:51:08;18.40;99.90
46492;DHT22;32206;51.446;6.792;2023-04-29T15:53:34;18.20;1.00
46492;DHT22;32206;51.446;6.792;2023-04-29T15:56:00;18.00;1.00
46492;DHT22;32206;51.446;6.792;2023-04-29T15:58:26;17.80;1.00
46492;DHT22;32206;51.446;6.792;2023-04-29T16:00:52;17.70;1.00
46492;DHT22;32206;51.446;6.792;2023-04-29T16:03:17;17.60;1.00
46492;DHT22;32206;51.446;6.792;2023-04-29T16:05:43;17.50;1.00
46492;DHT22;32206;51.446;6.792;2023-04-29T16:08:09;17.40;1.00
46492;DHT22;32206;51.446;6.792;2023-04-29T16:14:04;17.20;1.00
46492;DHT22;32206;51.446;6.792;2023-04-29T16:16:29;17.00;1.00
46492;DHT22;32206;51.446;6.792;2023-04-29T16:22:17;16.90;1.00
46492;DHT22;32206;51.446;6.792;2023-04-29T16:24:43;16.80;1.00
46492;DHT22;32206;51.446;6.792;2023-04-29T16:27:08;16.70;44.70
46492;DHT22;32206;51.446;6.792;2023-04-29T16:29:34;16.70;99.90
46492;DHT22;32206;51.446;6.792;2023-04-29T16:38:44;16.50;1.00
46492;DHT22;32206;51.446;6.792;2023-04-29T16:41:10;16.50;1.00
46492;DHT22;32206;51.446;6.792;2023-04-29T16:43:36;16.40;1.00
46492;DHT22;32206;51.446;6.792;2023-04-29T16:46:01;16.30;1.00
46492;DHT22;32206;51.446;6.792;2023-04-29T16:52:18;16.30;1.00
46492;DHT22;32206;51.446;6.792;2023-04-29T17:01:29;16.10;1.00
46492;DHT22;32206;51.446;6.792;2023-04-29T17:03:55;16.10;1.00
46492;DHT22;32206;51.446;6.792;2023-04-29T17:06:20;16.10;1.00
46492;DHT22;32206;51.446;6.792;2023-04-29T17:08:47;16.00;1.00
46492;DHT22;32206;51.446;6.792;2023-04-29T17:11:13;16.00;1.00
46492;DHT22;32206;51.446;6.792;2023-04-29T17:13:38;16.00;99.90
46492;DHT22;32206;51.446;6.792;2023-04-29T17:16:04;15.90;99.90
46492;DHT22;32206;51.446;6.792;2023-04-29T17:18:30;15.90;99.90
46492;DHT22;32206;51.446;6.792;2023-04-29T17:20:56;15.90;99.90
46492;DHT22;32206;51.446;6.792;2023-04-29T17:23:22;15.90;99.90
46492;DHT22;32206;51.446;6.792;2023-04-29T17:29:47;15.80;1.00
46492;DHT22;32206;51.446;6.792;2023-04-29T17:32:13;15.80;99.90
46492;DHT22;32206;51.446;6.792;2023-04-29T17:34:42;15.80;99.90
46492;DHT22;32206;51.446;6.792;2023-04-29T17:37:08;15.80;1.00
46492;DHT22;32206;51.446;6.792;2023-04-29T17:39:33;15.70;35.70
46492;DHT22;32206;51.446;6.792;2023-04-29T17:42:00;15.70;99.90
46492;DHT22;32206;51.446;6.792;2023-04-29T17:44:25;15.70;99.90
46492;DHT22;32206;51.446;6.792;2023-04-29T17:46:51;15.60;99.90
46492;DHT22;32206;51.446;6.792;2023-04-29T17:52:39;15.60;1.00
46492;DHT22;32206;51.446;6.792;2023-04-29T17:55:05;15.60;1.00
46492;DHT22;32206;51.446;6.792;2023-04-29T18:00:55;15.60;99.90
46492;DHT22;32206;51.446;6.792;2023-04-29T18:10:02;15.40;99.90
46492;DHT22;32206;51.446;6.792;2023-04-29T18:12:28;15.40;1.00
46492;DHT22;32206;51.446;6.792;2023-04-29T18:14:53;15.40;99.90
46492;DHT22;32206;51.446;6.792;2023-04-29T18:17:19;15.30;1.00
46492;DHT22;32206;51.446;6.792;2023-04-29T18:19:46;15.30;1.00
46492;DHT22;32206;51.446;6.792;2023-04-29T18:22:13;15.20;99.90
46492;DHT22;32206;51.446;6.792;2023-04-29T18:24:39;15.20;91.40
46492;DHT22;32206;51.446;6.792;2023-04-29T18:27:04;15.20;11.90
46492;DHT22;32206;51.446;6.792;2023-04-29T18:29:30;15.30;99.90
46492;DHT22;32206;51.446;6.792;2023-04-29T18:31:56;15.10;99.90
46492;DHT22;32206;51.446;6.792;2023-04-29T18:34:21;15.10;99.90
46492;DHT22;32206;51.446;6.792;2023-04-29T18:36:47;15.10;99.90
46492;DHT22;32206;51.446;6.792;2023-04-29T18:39:12;15.10;99.90
46492;DHT22;32206;51.446;6.792;2023-04-29T18:42:16;15.10;99.90
46492;DHT22;32206;51.446;6.792;2023-04-29T18:44:42;15.00;8.00
46492;DHT22;32206;51.446;6.792;2023-04-29T18:47:07;15.00;99.90
46492;DHT22;32206;51.446;6.792;2023-04-29T18:53:08;15.00;99.90
46492;DHT22;32206;51.446;6.792;2023-04-29T18:55:34;15.00;93.90
46492;DHT22;32206;51.446;6.792;2023-04-29T18:58:00;14.90;99.90
46492;DHT22;32206;51.446;6.792;2023-04-29T19:00:26;14.90;99.90
46492;DHT22;32206;51.446;6.792;2023-04-29T19:02:52;14.90;99.90
46492;DHT22;32206;51.446;6.792;2023-04-29T19:08:42;14.90;99.90
46492;DHT22;32206;51.446;6.792;2023-04-29T19:17:53;14.70;99.90
46492;DHT22;32206;51.446;6.792;2023-04-29T19:20:19;14.60;99.90
46492;DHT22;32206;51.446;6.792;2023-04-29T19:22:45;14.60;99.90
46492;DHT22;32206;51.446;6.792;2023-04-29T19:25:11;14.60;99.90
46492;DHT22;32206;51.446;6.792;2023-04-29T19:31:08;14.40;99.90
46492;DHT22;32206;51.446;6.792;2023-04-29T19:33:35;14.30;99.90
46492;DHT22;32206;51.446;6.792;2023-04-29T19:39:23;14.20;1.00
46492;DHT22;32206;51.446;6.792;2023-04-29T19:41:49;14.10;1.00
46492;DHT22;32206;51.446;6.792;2023-04-29T19:44:15;14.10;1.00
46492;DHT22;32206;51.446;6.792;2023-04-29T19:46:40;14.00;1.00
46492;DHT22;32206;51.446;6.792;2023-04-29T19:49:06;14.00;1.00
46492;DHT22;32206;51.446;6.792;2023-04-29T19:51:32;13.90;1.00
46492;DHT22;32206;51.446;6.792;2023-04-29T19:53:57;13.90;1.00
46492;DHT22;32206;51.446;6.792;2023-04-29T19:56:26;13.90;1.00
46492;DHT22;32206;51.446;6.792;2023-04-29T19:58:52;13.80;1.00
46492;DHT22;32206;51.446;6.792;2023-04-29T20:01:18;13.80;1.00
46492;DHT22;32206;51.446;6.792;2023-04-29T20:03:43;13.70;1.00
46492;DHT22;32206;51.446;6.792;2023-04-29T20:06:09;13.70;2.00
46492;DHT22;32206;51.446;6.792;2023-04-29T20:08:35;13.60;11.90